sensor_id;sensor_type;location;lat;lon;timestamp;pressure;altitude;pressure_sealevel;temperature;humidity
53484;BME280;75581;50.088;19.966;2024-01-30T00:01:26;101110.83;;;-1.29;72.51
53484;BME280;75581;50.088;19.966;2024-01-30T00:03:55;101107.15;;;-1.29;72.51
53484;BME280;75581;50.088;19.966;2024-01-30T00:06:25;101100.70;;;-1.31;72.50
53484;BME280;75581;50.088;19.966;2024-01-30T00:08:54;101103.19;;;-1.33;72.36
53484;BME280;75581;50.088;19.966;2024-01-30T00:11:23;101100.28;;;-1.36;72.23
53484;BME280;75581;50.088;19.966;2024-01-30T00:13:54;101096.39;;;-1.37;72.27
53484;BME280;75581;50.088;19.966;2024-01-30T00:16:27;101093.71;;;-1.39;72.29
53484;BME280;75581;50.088;19.966;2024-01-30T00:18:57;101096.13;;;-1.38;72.53
53484;BME280;75581;50.088;19.966;2024-01-30T00:21:26;101093.67;;;-1.39;72.58
53484;BME280;75581;50.088;19.966;2024-01-30T00:23:55;101097.55;;;-1.40;72.42
53484;BME280;75581;50.088;19.966;2024-01-30T00:26:24;101102.21;;;-1.43;72.33
53484;BME280;75581;50.088;19.966;2024-01-30T00:28:52;101103.47;;;-1.45;72.31
53484;BME280;75581;50.088;19.966;2024-01-30T00:31:21;101109.10;;;-1.47;72.39
53484;BME280;75581;50.088;19.966;2024-01-30T00:33:50;101108.70;;;-1.48;72.48
53484;BME280;75581;50.088;19.966;2024-01-30T00:36:20;101104.45;;;-1.52;72.37
53484;BME280;75581;50.088;19.966;2024-01-30T00:38:49;101099.95;;;-1.54;72.54
53484;BME280;75581;50.088;19.966;2024-01-30T00:41:21;101096.00;;;-1.54;72.61
53484;BME280;75581;50.088;19.966;2024-01-30T00:43:50;101096.25;;;-1.55;72.64
53484;BME280;75581;50.088;19.966;2024-01-30T00:46:19;101098.26;;;-1.56;72.66
53484;BME280;75581;50.088;19.966;2024-01-30T00:48:48;101094.38;;;-1.58;72.54
53484;BME280;75581;50.088;19.966;2024-01-30T00:51:17;101095.80;;;-1.60;72.54
53484;BME280;75581;50.088;19.966;2024-01-30T00:53:46;101092.05;;;-1.63;72.51
53484;BME280;75581;50.088;19.966;2024-01-30T00:56:15;101099.73;;;-1.65;72.72
53484;BME280;75581;50.088;19.966;2024-01-30T00:58:46;101098.80;;;-1.66;72.75
53484;BME280;75581;50.088;19.966;2024-01-30T01:01:15;101089.61;;;-1.68;72.68
53484;BME280;75581;50.088;19.966;2024-01-30T01:03:45;101082.94;;;-1.70;72.64
53484;BME280;75581;50.088;19.966;2024-01-30T01:06:14;101081.86;;;-1.72;72.69
53484;BME280;75581;50.088;19.966;2024-01-30T01:08:43;101090.55;;;-1.72;72.73
53484;BME280;75581;50.088;19.966;2024-01-30T01:11:13;101084.73;;;-1.74;72.68
53484;BME280;75581;50.088;19.966;2024-01-30T01:13:41;101085.53;;;-1.76;72.87
53484;BME280;75581;50.088;19.966;2024-01-30T01:16:10;101081.99;;;-1.75;72.93
53484;BME280;75581;50.088;19.966;2024-01-30T01:18:39;101076.42;;;-1.74;73.03
53484;BME280;75581;50.088;19.966;2024-01-30T01:21:09;101075.79;;;-1.73;72.96
53484;BME280;75581;50.088;19.966;2024-01-30T01:23:38;101080.80;;;-1.74;72.96
53484;BME280;75581;50.088;19.966;2024-01-30T01:26:08;101075.98;;;-1.73;72.88
53484;BME280;75581;50.088;19.966;2024-01-30T01:28:40;101075.29;;;-1.73;72.90
53484;BME280;75581;50.088;19.966;2024-01-30T01:31:09;101071.46;;;-1.76;72.71
53484;BME280;75581;50.088;19.966;2024-01-30T01:33:38;101066.95;;;-1.79;72.66
53484;BME280;75581;50.088;19.966;2024-01-30T01:36:08;101068.50;;;-1.82;72.50
53484;BME280;75581;50.088;19.966;2024-01-30T01:38:37;101071.39;;;-1.85;72.69
53484;BME280;75581;50.088;19.966;2024-01-30T01:41:06;101071.36;;;-1.87;72.72
53484;BME280;75581;50.088;19.966;2024-01-30T01:43:35;101070.19;;;-1.88;72.87
53484;BME280;75581;50.088;19.966;2024-01-30T01:46:04;101076.55;;;-1.88;72.85
53484;BME280;75581;50.088;19.966;2024-01-30T01:48:34;101075.16;;;-1.88;72.90
53484;BME280;75581;50.088;19.966;2024-01-30T01:51:03;101074.69;;;-1.88;72.91
53484;BME280;75581;50.088;19.966;2024-01-30T01:53:32;101074.81;;;-1.90;72.94
53484;BME280;75581;50.088;19.966;2024-01-30T01:56:01;101075.41;;;-1.91;72.98
53484;BME280;75581;50.088;19.966;2024-01-30T01:58:30;101078.52;;;-1.92;72.87
53484;BME280;75581;50.088;19.966;2024-01-30T02:00:59;101075.87;;;-1.94;72.81
53484;BME280;75581;50.088;19.966;2024-01-30T02:03:29;101070.68;;;-1.95;72.89
53484;BME280;75581;50.088;19.966;2024-01-30T02:05:59;101070.50;;;-1.95;72.97
53484;BME280;75581;50.088;19.966;2024-01-30T02:08:28;101062.27;;;-1.96;72.96
53484;BME280;75581;50.088;19.966;2024-01-30T02:10:57;101057.01;;;-1.96;72.97
53484;BME280;75581;50.088;19.966;2024-01-30T02:13:26;101057.10;;;-1.97;72.91
53484;BME280;75581;50.088;19.966;2024-01-30T02:15:55;101054.73;;;-1.98;72.82
53484;BME280;75581;50.088;19.966;2024-01-30T02:18:24;101057.14;;;-1.99;72.80
53484;BME280;75581;50.088;19.966;2024-01-30T02:20:56;101061.02;;;-2.01;72.81
53484;BME280;75581;50.088;19.966;2024-01-30T02:23:25;101058.67;;;-2.03;72.84
53484;BME280;75581;50.088;19.966;2024-01-30T02:25:55;101057.24;;;-2.05;72.74
53484;BME280;75581;50.088;19.966;2024-01-30T02:28:25;101056.56;;;-2.07;72.76
53484;BME280;75581;50.088;19.966;2024-01-30T02:30:54;101053.75;;;-2.09;72.77
53484;BME280;75581;50.088;19.966;2024-01-30T02:33:23;101053.84;;;-2.10;72.99
53484;BME280;75581;50.088;19.966;2024-01-30T02:35:52;101046.62;;;-2.10;73.01
53484;BME280;75581;50.088;19.966;2024-01-30T02:38:21;101048.27;;;-2.11;72.91
53484;BME280;75581;50.088;19.966;2024-01-30T02:40:50;101043.40;;;-2.11;72.86
53484;BME280;75581;50.088;19.966;2024-01-30T02:43:19;101037.38;;;-2.13;72.69
53484;BME280;75581;50.088;19.966;2024-01-30T02:45:48;101035.31;;;-2.14;72.77
53484;BME280;75581;50.088;19.966;2024-01-30T02:48:17;101037.45;;;-2.14;72.85
53484;BME280;75581;50.088;19.966;2024-01-30T02:50:46;101032.44;;;-2.15;72.75
53484;BME280;75581;50.088;19.966;2024-01-30T02:53:15;101033.28;;;-2.17;72.75
53484;BME280;75581;50.088;19.966;2024-01-30T02:55:44;101033.71;;;-2.19;72.49
53484;BME280;75581;50.088;19.966;2024-01-30T02:58:14;101033.98;;;-2.21;72.62
53484;BME280;75581;50.088;19.966;2024-01-30T03:00:43;101031.65;;;-2.22;72.60
53484;BME280;75581;50.088;19.966;2024-01-30T03:03:12;101032.83;;;-2.24;72.67
53484;BME280;75581;50.088;19.966;2024-01-30T03:05:41;101029.23;;;-2.25;72.72
53484;BME280;75581;50.088;19.966;2024-01-30T03:08:10;101030.86;;;-2.26;72.75
53484;BME280;75581;50.088;19.966;2024-01-30T03:10:40;101033.56;;;-2.26;72.78
53484;BME280;75581;50.088;19.966;2024-01-30T03:13:09;101028.81;;;-2.28;72.60
53484;BME280;75581;50.088;19.966;2024-01-30T03:15:38;101030.63;;;-2.31;72.74
53484;BME280;75581;50.088;19.966;2024-01-30T03:18:09;101032.98;;;-2.33;72.76
53484;BME280;75581;50.088;19.966;2024-01-30T03:20:38;101035.40;;;-2.37;72.72
53484;BME280;75581;50.088;19.966;2024-01-30T03:23:07;101035.09;;;-2.39;72.80
53484;BME280;75581;50.088;19.966;2024-01-30T03:25:36;101042.02;;;-2.42;72.83
53484;BME280;75581;50.088;19.966;2024-01-30T03:28:05;101038.10;;;-2.46;72.74
53484;BME280;75581;50.088;19.966;2024-01-30T03:30:34;101034.35;;;-2.49;72.72
53484;BME280;75581;50.088;19.966;2024-01-30T03:33:04;101034.98;;;-2.52;72.85
53484;BME280;75581;50.088;19.966;2024-01-30T03:35:33;101036.83;;;-2.55;72.85
53484;BME280;75581;50.088;19.966;2024-01-30T03:38:02;101037.34;;;-2.57;72.88
53484;BME280;75581;50.088;19.966;2024-01-30T03:40:30;101037.47;;;-2.58;72.91
53484;BME280;75581;50.088;19.966;2024-01-30T03:42:59;101045.06;;;-2.59;73.09
53484;BME280;75581;50.088;19.966;2024-01-30T03:45:28;101038.23;;;-2.61;72.82
53484;BME280;75581;50.088;19.966;2024-01-30T03:47:57;101035.34;;;-2.63;72.87
53484;BME280;75581;50.088;19.966;2024-01-30T03:50:26;101027.95;;;-2.63;72.95
53484;BME280;75581;50.088;19.966;2024-01-30T03:52:56;101028.27;;;-2.63;73.17
53484;BME280;75581;50.088;19.966;2024-01-30T03:55:26;101032.20;;;-2.61;73.17
53484;BME280;75581;50.088;19.966;2024-01-30T03:57:55;101027.92;;;-2.60;73.16
53484;BME280;75581;50.088;19.966;2024-01-30T04:00:27;101031.45;;;-2.60;73.10
53484;BME280;75581;50.088;19.966;2024-01-30T04:02:55;101030.73;;;-2.60;73.09
53484;BME280;75581;50.088;19.966;2024-01-30T04:05:25;101029.89;;;-2.58;73.15
53484;BME280;75581;50.088;19.966;2024-01-30T04:07:54;101026.92;;;-2.59;73.01
53484;BME280;75581;50.088;19.966;2024-01-30T04:10:23;101029.06;;;-2.59;73.13
53484;BME280;75581;50.088;19.966;2024-01-30T04:12:53;101028.98;;;-2.58;73.22
53484;BME280;75581;50.088;19.966;2024-01-30T04:15:22;101025.68;;;-2.59;73.15
53484;BME280;75581;50.088;19.966;2024-01-30T04:17:52;101020.47;;;-2.59;73.22
53484;BME280;75581;50.088;19.966;2024-01-30T04:20:21;101021.75;;;-2.58;73.23
53484;BME280;75581;50.088;19.966;2024-01-30T04:22:50;101026.27;;;-2.57;73.30
53484;BME280;75581;50.088;19.966;2024-01-30T04:25:20;101027.77;;;-2.56;73.25
53484;BME280;75581;50.088;19.966;2024-01-30T04:27:49;101031.46;;;-2.56;73.08
53484;BME280;75581;50.088;19.966;2024-01-30T04:30:18;101029.36;;;-2.58;72.93
53484;BME280;75581;50.088;19.966;2024-01-30T04:32:47;101031.20;;;-2.59;72.98
53484;BME280;75581;50.088;19.966;2024-01-30T04:35:16;101031.63;;;-2.61;73.02
53484;BME280;75581;50.088;19.966;2024-01-30T04:37:45;101034.59;;;-2.60;73.12
53484;BME280;75581;50.088;19.966;2024-01-30T04:40:15;101037.84;;;-2.58;73.22
53484;BME280;75581;50.088;19.966;2024-01-30T04:42:44;101038.40;;;-2.57;73.20
53484;BME280;75581;50.088;19.966;2024-01-30T04:45:13;101033.25;;;-2.56;73.23
53484;BME280;75581;50.088;19.966;2024-01-30T04:47:42;101032.66;;;-2.58;73.04
53484;BME280;75581;50.088;19.966;2024-01-30T04:50:11;101038.86;;;-2.58;73.05
53484;BME280;75581;50.088;19.966;2024-01-30T04:52:40;101039.54;;;-2.58;73.03
53484;BME280;75581;50.088;19.966;2024-01-30T04:55:09;101040.70;;;-2.57;73.04
53484;BME280;75581;50.088;19.966;2024-01-30T04:57:38;101032.70;;;-2.58;73.00
53484;BME280;75581;50.088;19.966;2024-01-30T05:00:07;101035.59;;;-2.62;72.90
53484;BME280;75581;50.088;19.966;2024-01-30T05:02:36;101034.75;;;-2.64;73.02
53484;BME280;75581;50.088;19.966;2024-01-30T05:05:05;101033.33;;;-2.66;72.98
53484;BME280;75581;50.088;19.966;2024-01-30T05:07:34;101038.48;;;-2.68;73.02
53484;BME280;75581;50.088;19.966;2024-01-30T05:10:06;101042.42;;;-2.71;73.15
53484;BME280;75581;50.088;19.966;2024-01-30T05:12:35;101043.78;;;-2.72;73.27
53484;BME280;75581;50.088;19.966;2024-01-30T05:15:04;101045.41;;;-2.75;73.15
53484;BME280;75581;50.088;19.966;2024-01-30T05:17:33;101045.04;;;-2.77;73.25
53484;BME280;75581;50.088;19.966;2024-01-30T05:20:05;101045.92;;;-2.79;73.25
53484;BME280;75581;50.088;19.966;2024-01-30T05:22:35;101043.61;;;-2.81;73.09
53484;BME280;75581;50.088;19.966;2024-01-30T05:25:05;101036.08;;;-2.82;73.30
53484;BME280;75581;50.088;19.966;2024-01-30T05:27:34;101036.39;;;-2.81;73.46
53484;BME280;75581;50.088;19.966;2024-01-30T05:30:04;101038.66;;;-2.81;73.50
53484;BME280;75581;50.088;19.966;2024-01-30T05:32:33;101043.41;;;-2.81;73.45
53484;BME280;75581;50.088;19.966;2024-01-30T05:35:03;101043.52;;;-2.80;73.48
53484;BME280;75581;50.088;19.966;2024-01-30T05:37:32;101040.93;;;-2.81;73.32
53484;BME280;75581;50.088;19.966;2024-01-30T05:40:01;101039.71;;;-2.81;73.21
53484;BME280;75581;50.088;19.966;2024-01-30T05:42:31;101040.13;;;-2.81;73.06
53484;BME280;75581;50.088;19.966;2024-01-30T05:44:59;101046.05;;;-2.83;73.22
53484;BME280;75581;50.088;19.966;2024-01-30T05:47:28;101044.80;;;-2.82;73.13
53484;BME280;75581;50.088;19.966;2024-01-30T05:49:57;101040.67;;;-2.82;73.24
53484;BME280;75581;50.088;19.966;2024-01-30T05:52:26;101047.95;;;-2.80;73.30
53484;BME280;75581;50.088;19.966;2024-01-30T05:54:55;101045.77;;;-2.81;73.21
53484;BME280;75581;50.088;19.966;2024-01-30T05:57:24;101043.46;;;-2.81;73.19
53484;BME280;75581;50.088;19.966;2024-01-30T05:59:54;101047.67;;;-2.81;73.28
53484;BME280;75581;50.088;19.966;2024-01-30T06:02:23;101049.17;;;-2.80;73.25
53484;BME280;75581;50.088;19.966;2024-01-30T06:04:52;101049.98;;;-2.79;73.36
53484;BME280;75581;50.088;19.966;2024-01-30T06:07:21;101046.04;;;-2.79;73.27
53484;BME280;75581;50.088;19.966;2024-01-30T06:09:54;101046.67;;;-2.77;73.29
53484;BME280;75581;50.088;19.966;2024-01-30T06:12:23;101043.11;;;-2.79;73.14
53484;BME280;75581;50.088;19.966;2024-01-30T06:14:52;101052.69;;;-2.80;73.30
53484;BME280;75581;50.088;19.966;2024-01-30T06:17:23;101052.81;;;-2.80;73.34
53484;BME280;75581;50.088;19.966;2024-01-30T06:19:52;101049.02;;;-2.78;73.35
53484;BME280;75581;50.088;19.966;2024-01-30T06:22:21;101049.88;;;-2.78;73.32
53484;BME280;75581;50.088;19.966;2024-01-30T06:24:51;101046.70;;;-2.78;73.24
53484;BME280;75581;50.088;19.966;2024-01-30T06:27:20;101048.42;;;-2.80;72.98
53484;BME280;75581;50.088;19.966;2024-01-30T06:29:49;101045.32;;;-2.80;73.02
53484;BME280;75581;50.088;19.966;2024-01-30T06:32:18;101042.19;;;-2.81;73.08
53484;BME280;75581;50.088;19.966;2024-01-30T06:34:47;101044.61;;;-2.80;73.23
53484;BME280;75581;50.088;19.966;2024-01-30T06:37:16;101040.02;;;-2.78;73.24
53484;BME280;75581;50.088;19.966;2024-01-30T06:39:45;101037.61;;;-2.77;73.10
53484;BME280;75581;50.088;19.966;2024-01-30T06:42:15;101042.85;;;-2.74;73.22
53484;BME280;75581;50.088;19.966;2024-01-30T06:44:44;101044.29;;;-2.72;73.28
53484;BME280;75581;50.088;19.966;2024-01-30T06:47:13;101045.83;;;-2.70;73.39
53484;BME280;75581;50.088;19.966;2024-01-30T06:49:42;101049.84;;;-2.67;73.39
53484;BME280;75581;50.088;19.966;2024-01-30T06:52:12;101049.65;;;-2.65;73.33
53484;BME280;75581;50.088;19.966;2024-01-30T06:54:41;101053.12;;;-2.62;73.34
53484;BME280;75581;50.088;19.966;2024-01-30T06:57:10;101053.76;;;-2.60;73.31
53484;BME280;75581;50.088;19.966;2024-01-30T06:59:40;101056.48;;;-2.56;73.29
53484;BME280;75581;50.088;19.966;2024-01-30T07:02:13;101051.08;;;-2.53;73.36
53484;BME280;75581;50.088;19.966;2024-01-30T07:04:42;101047.23;;;-2.47;73.52
53484;BME280;75581;50.088;19.966;2024-01-30T07:07:15;101045.09;;;-2.43;73.51
53484;BME280;75581;50.088;19.966;2024-01-30T07:09:44;101046.11;;;-2.36;73.48
53484;BME280;75581;50.088;19.966;2024-01-30T07:12:13;101038.05;;;-2.31;73.55
53484;BME280;75581;50.088;19.966;2024-01-30T07:14:42;101035.41;;;-2.23;73.55
53484;BME280;75581;50.088;19.966;2024-01-30T07:17:11;101035.36;;;-2.16;73.43
53484;BME280;75581;50.088;19.966;2024-01-30T07:19:40;101034.30;;;-2.10;73.48
53484;BME280;75581;50.088;19.966;2024-01-30T07:22:09;101037.36;;;-2.03;73.52
53484;BME280;75581;50.088;19.966;2024-01-30T07:24:42;101040.35;;;-1.95;73.57
53484;BME280;75581;50.088;19.966;2024-01-30T07:27:14;101044.91;;;-1.87;73.62
53484;BME280;75581;50.088;19.966;2024-01-30T07:29:46;101048.98;;;-1.79;73.64
53484;BME280;75581;50.088;19.966;2024-01-30T07:32:15;101053.11;;;-1.70;73.76
53484;BME280;75581;50.088;19.966;2024-01-30T07:34:44;101051.02;;;-1.61;73.85
53484;BME280;75581;50.088;19.966;2024-01-30T07:37:30;101051.57;;;-1.51;73.80
53484;BME280;75581;50.088;19.966;2024-01-30T07:39:59;101048.02;;;-1.43;73.72
53484;BME280;75581;50.088;19.966;2024-01-30T07:42:29;101044.77;;;-1.35;73.77
53484;BME280;75581;50.088;19.966;2024-01-30T07:44:58;101045.56;;;-1.26;73.69
53484;BME280;75581;50.088;19.966;2024-01-30T07:47:27;101053.88;;;-1.18;73.54
53484;BME280;75581;50.088;19.966;2024-01-30T07:49:56;101053.46;;;-1.10;73.63
53484;BME280;75581;50.088;19.966;2024-01-30T07:52:25;101048.62;;;-1.02;73.60
53484;BME280;75581;50.088;19.966;2024-01-30T07:54:54;101045.72;;;-0.93;73.44
53484;BME280;75581;50.088;19.966;2024-01-30T07:57:24;101041.77;;;-0.85;73.49
53484;BME280;75581;50.088;19.966;2024-01-30T07:59:53;101042.98;;;-0.75;73.54
53484;BME280;75581;50.088;19.966;2024-01-30T08:02:22;101043.17;;;-0.66;73.69
53484;BME280;75581;50.088;19.966;2024-01-30T08:04:52;101045.80;;;-0.55;73.56
53484;BME280;75581;50.088;19.966;2024-01-30T08:07:21;101043.36;;;-0.44;73.57
53484;BME280;75581;50.088;19.966;2024-01-30T08:09:51;101043.86;;;-0.30;73.64
53484;BME280;75581;50.088;19.966;2024-01-30T08:12:20;101047.71;;;-0.17;73.52
53484;BME280;75581;50.088;19.966;2024-01-30T08:14:49;101049.38;;;-0.01;73.56
53484;BME280;75581;50.088;19.966;2024-01-30T08:17:18;101045.26;;;0.10;73.30
53484;BME280;75581;50.088;19.966;2024-01-30T08:19:47;101047.84;;;0.20;73.10
53484;BME280;75581;50.088;19.966;2024-01-30T08:22:16;101046.00;;;0.29;73.05
53484;BME280;75581;50.088;19.966;2024-01-30T08:24:45;101049.59;;;0.40;72.95
53484;BME280;75581;50.088;19.966;2024-01-30T08:27:14;101043.70;;;0.49;72.88
53484;BME280;75581;50.088;19.966;2024-01-30T08:29:43;101047.13;;;0.59;72.69
53484;BME280;75581;50.088;19.966;2024-01-30T08:32:12;101046.83;;;0.67;72.60
53484;BME280;75581;50.088;19.966;2024-01-30T08:34:42;101049.81;;;0.75;72.43
53484;BME280;75581;50.088;19.966;2024-01-30T08:37:11;101044.15;;;0.86;72.42
53484;BME280;75581;50.088;19.966;2024-01-30T08:39:40;101048.70;;;1.05;72.76
53484;BME280;75581;50.088;19.966;2024-01-30T08:42:09;101045.55;;;1.71;74.06
53484;BME280;75581;50.088;19.966;2024-01-30T08:44:38;101045.28;;;2.75;74.84
53484;BME280;75581;50.088;19.966;2024-01-30T08:47:07;101045.59;;;4.13;75.22
53484;BME280;75581;50.088;19.966;2024-01-30T08:49:36;101039.98;;;6.14;74.99
53484;BME280;75581;50.088;19.966;2024-01-30T08:52:05;101040.46;;;8.54;73.73
53484;BME280;75581;50.088;19.966;2024-01-30T08:54:35;101033.54;;;10.99;70.76
53484;BME280;75581;50.088;19.966;2024-01-30T08:57:05;101027.46;;;13.28;67.53
53484;BME280;75581;50.088;19.966;2024-01-30T08:59:37;101023.81;;;15.39;63.77
53484;BME280;75581;50.088;19.966;2024-01-30T09:02:06;101020.97;;;17.31;60.25
53484;BME280;75581;50.088;19.966;2024-01-30T09:04:40;101017.33;;;19.06;56.27
53484;BME280;75581;50.088;19.966;2024-01-30T09:07:09;101018.29;;;20.41;52.63
53484;BME280;75581;50.088;19.966;2024-01-30T09:09:39;101018.93;;;21.43;48.92
53484;BME280;75581;50.088;19.966;2024-01-30T09:12:11;101021.11;;;22.42;46.36
53484;BME280;75581;50.088;19.966;2024-01-30T09:14:41;101014.97;;;23.21;43.55
53484;BME280;75581;50.088;19.966;2024-01-30T09:17:10;101015.09;;;23.91;41.35
53484;BME280;75581;50.088;19.966;2024-01-30T09:19:40;101007.98;;;24.59;39.23
53484;BME280;75581;50.088;19.966;2024-01-30T09:22:09;101011.23;;;25.08;37.58
53484;BME280;75581;50.088;19.966;2024-01-30T09:24:40;101008.85;;;25.52;36.15
53484;BME280;75581;50.088;19.966;2024-01-30T09:27:09;101008.92;;;25.80;34.78
53484;BME280;75581;50.088;19.966;2024-01-30T09:29:38;101000.45;;;26.23;33.97
53484;BME280;75581;50.088;19.966;2024-01-30T09:32:08;100999.48;;;26.75;32.53
53484;BME280;75581;50.088;19.966;2024-01-30T09:34:37;100999.15;;;26.65;30.97
53484;BME280;75581;50.088;19.966;2024-01-30T09:37:08;100994.63;;;26.36;30.23
53484;BME280;75581;50.088;19.966;2024-01-30T09:39:37;100994.06;;;25.71;29.70
53484;BME280;75581;50.088;19.966;2024-01-30T09:42:24;100996.57;;;25.40;29.86
53484;BME280;75581;50.088;19.966;2024-01-30T09:44:56;100992.27;;;25.36;29.55
53484;BME280;75581;50.088;19.966;2024-01-30T09:47:26;100987.64;;;25.43;29.35
53484;BME280;75581;50.088;19.966;2024-01-30T09:49:56;100991.91;;;25.68;29.10
53484;BME280;75581;50.088;19.966;2024-01-30T09:52:25;100987.58;;;25.82;28.71
53484;BME280;75581;50.088;19.966;2024-01-30T09:54:55;100982.52;;;26.31;28.40
53484;BME280;75581;50.088;19.966;2024-01-30T09:57:24;100977.63;;;26.75;27.44
53484;BME280;75581;50.088;19.966;2024-01-30T09:59:55;100976.60;;;26.99;27.07
53484;BME280;75581;50.088;19.966;2024-01-30T10:02:24;100974.61;;;27.39;26.83
53484;BME280;75581;50.088;19.966;2024-01-30T10:04:53;100968.78;;;27.84;26.20
53484;BME280;75581;50.088;19.966;2024-01-30T10:07:22;100968.06;;;28.15;25.76
53484;BME280;75581;50.088;19.966;2024-01-30T10:09:53;100965.79;;;28.31;25.55
53484;BME280;75581;50.088;19.966;2024-01-30T10:12:22;100962.49;;;28.36;24.97
53484;BME280;75581;50.088;19.966;2024-01-30T10:14:51;100953.92;;;28.12;24.34
53484;BME280;75581;50.088;19.966;2024-01-30T10:17:21;100952.61;;;27.97;24.49
53484;BME280;75581;50.088;19.966;2024-01-30T10:20:04;100951.03;;;27.67;24.42
53484;BME280;75581;50.088;19.966;2024-01-30T10:22:34;100947.50;;;27.35;24.35
53484;BME280;75581;50.088;19.966;2024-01-30T10:25:04;100942.98;;;26.97;24.19
53484;BME280;75581;50.088;19.966;2024-01-30T10:27:34;100936.62;;;26.29;24.23
53484;BME280;75581;50.088;19.966;2024-01-30T10:30:04;100933.72;;;25.55;24.39
53484;BME280;75581;50.088;19.966;2024-01-30T10:32:36;100936.33;;;24.49;24.66
53484;BME280;75581;50.088;19.966;2024-01-30T10:35:05;100939.35;;;23.46;25.17
53484;BME280;75581;50.088;19.966;2024-01-30T10:37:35;100936.83;;;22.44;25.71
53484;BME280;75581;50.088;19.966;2024-01-30T10:40:04;100934.11;;;21.23;26.32
53484;BME280;75581;50.088;19.966;2024-01-30T10:42:38;100934.92;;;19.84;27.20
53484;BME280;75581;50.088;19.966;2024-01-30T10:45:14;100927.73;;;18.39;27.89
53484;BME280;75581;50.088;19.966;2024-01-30T10:47:53;100921.34;;;16.91;29.47
53484;BME280;75581;50.088;19.966;2024-01-30T10:50:27;100920.46;;;15.70;30.70
53484;BME280;75581;50.088;19.966;2024-01-30T10:52:59;100920.64;;;14.67;31.90
53484;BME280;75581;50.088;19.966;2024-01-30T10:55:34;100922.52;;;13.75;32.29
53484;BME280;75581;50.088;19.966;2024-01-30T10:58:05;100919.36;;;12.96;33.15
53484;BME280;75581;50.088;19.966;2024-01-30T11:00:34;100917.73;;;12.34;34.56
53484;BME280;75581;50.088;19.966;2024-01-30T11:03:04;100918.35;;;11.78;35.41
53484;BME280;75581;50.088;19.966;2024-01-30T11:05:33;100915.82;;;11.23;36.02
53484;BME280;75581;50.088;19.966;2024-01-30T11:08:22;100911.01;;;10.79;36.40
53484;BME280;75581;50.088;19.966;2024-01-30T11:10:56;100903.65;;;10.33;37.46
53484;BME280;75581;50.088;19.966;2024-01-30T11:13:30;100896.89;;;9.99;37.94
53484;BME280;75581;50.088;19.966;2024-01-30T11:16:03;100898.98;;;9.71;38.66
53484;BME280;75581;50.088;19.966;2024-01-30T11:18:35;100895.36;;;9.46;39.07
53484;BME280;75581;50.088;19.966;2024-01-30T11:21:06;100894.84;;;9.24;39.16
53484;BME280;75581;50.088;19.966;2024-01-30T11:23:34;100893.21;;;9.02;39.14
53484;BME280;75581;50.088;19.966;2024-01-30T11:26:05;100891.83;;;8.80;39.63
53484;BME280;75581;50.088;19.966;2024-01-30T11:28:34;100885.25;;;8.61;39.79
53484;BME280;75581;50.088;19.966;2024-01-30T11:31:06;100882.12;;;8.43;40.02
53484;BME280;75581;50.088;19.966;2024-01-30T11:33:36;100888.77;;;8.26;39.97
53484;BME280;75581;50.088;19.966;2024-01-30T11:36:06;100885.38;;;8.09;40.38
53484;BME280;75581;50.088;19.966;2024-01-30T11:38:37;100883.46;;;7.97;40.80
53484;BME280;75581;50.088;19.966;2024-01-30T11:41:08;100878.88;;;7.89;41.42
53484;BME280;75581;50.088;19.966;2024-01-30T11:43:38;100875.14;;;7.80;41.48
53484;BME280;75581;50.088;19.966;2024-01-30T11:46:07;100877.16;;;7.73;42.11
53484;BME280;75581;50.088;19.966;2024-01-30T11:48:36;100881.45;;;7.68;42.31
53484;BME280;75581;50.088;19.966;2024-01-30T11:51:06;100877.96;;;7.60;42.10
53484;BME280;75581;50.088;19.966;2024-01-30T11:53:35;100875.30;;;7.55;42.05
53484;BME280;75581;50.088;19.966;2024-01-30T11:56:06;100875.00;;;7.49;42.30
53484;BME280;75581;50.088;19.966;2024-01-30T11:58:36;100870.02;;;7.43;42.71
53484;BME280;75581;50.088;19.966;2024-01-30T12:01:05;100870.55;;;7.39;42.87
53484;BME280;75581;50.088;19.966;2024-01-30T12:03:35;100869.96;;;7.34;42.74
53484;BME280;75581;50.088;19.966;2024-01-30T12:06:04;100866.52;;;7.30;42.71
53484;BME280;75581;50.088;19.966;2024-01-30T12:08:34;100861.91;;;7.27;42.73
53484;BME280;75581;50.088;19.966;2024-01-30T12:11:06;100860.60;;;7.28;42.93
53484;BME280;75581;50.088;19.966;2024-01-30T12:13:36;100857.21;;;7.28;43.17
53484;BME280;75581;50.088;19.966;2024-01-30T12:16:05;100856.50;;;7.28;43.08
53484;BME280;75581;50.088;19.966;2024-01-30T12:18:35;100857.75;;;7.29;43.30
53484;BME280;75581;50.088;19.966;2024-01-30T12:21:04;100851.23;;;7.32;43.42
53484;BME280;75581;50.088;19.966;2024-01-30T12:23:37;100853.35;;;7.35;43.35
53484;BME280;75581;50.088;19.966;2024-01-30T12:26:06;100849.94;;;7.38;43.23
53484;BME280;75581;50.088;19.966;2024-01-30T12:28:35;100845.27;;;7.39;43.47
53484;BME280;75581;50.088;19.966;2024-01-30T12:31:05;100848.16;;;7.40;43.23
53484;BME280;75581;50.088;19.966;2024-01-30T12:33:36;100843.91;;;7.44;43.38
53484;BME280;75581;50.088;19.966;2024-01-30T12:36:05;100845.83;;;7.50;43.46
53484;BME280;75581;50.088;19.966;2024-01-30T12:38:34;100840.91;;;7.55;43.70
53484;BME280;75581;50.088;19.966;2024-01-30T12:41:04;100841.29;;;7.56;43.92
53484;BME280;75581;50.088;19.966;2024-01-30T12:43:35;100839.39;;;7.55;43.67
53484;BME280;75581;50.088;19.966;2024-01-30T12:46:07;100838.98;;;7.56;43.43
53484;BME280;75581;50.088;19.966;2024-01-30T12:48:36;100837.45;;;7.57;43.35
53484;BME280;75581;50.088;19.966;2024-01-30T12:51:06;100834.48;;;7.59;43.20
53484;BME280;75581;50.088;19.966;2024-01-30T12:53:35;100834.86;;;7.58;43.37
53484;BME280;75581;50.088;19.966;2024-01-30T12:56:04;100834.92;;;7.58;43.48